Zahran, Saudi Arabia
Current Conditions -  °F | °C
As of 5:00 PM on Sunday 21 Dec 2014 (Local Time) from OEDR Reporting Station
Sand / Dust Storm Sand / Dust Storm  
Wind Chill: 75°   Ceiling: Unl
Heat Index: 75°   Visibility: 3mi
Dew Point: 41°   Wind: 7mph
Humidity: 29%   Direction: 160°SSE
Pressure: 29.85"   Gusts: NA
Location:  26.27°N, 50.15°E
Report Text: OEDR 211400Z 16006KT 5000 DU SKC 24/05 Q1011 NOSIG
Loading
Personal Weather Stations






























Interactive Weather Map New forecast layout! Learn more

10-Day Weather Forecast

Advertisements
Track Severe Weather on mobile